Country Club Heights, Kentucky
Current Conditions -  °F | °C
As of 9:55 AM on Tuesday 21 Oct 2014 (Local Time) from KFGX Reporting Station
Overcast Overcast  
Wind Chill: 50°   Ceiling: 6000
Heat Index: 50°   Visibility: 10mi
Dew Point: 46°   Wind: 10mph
Humidity: 85%   Direction: 330°NNW
Pressure: 30.02"   Gusts: NA
Location:  38.585°N, 83.7789°W
Report Text: KFGX 211355Z AUTO 33009KT 10SM SCT012 OVC060 10/08 A3002 RMK AO2 T01010077
Loading
Personal Weather Stations






























Interactive Weather Map
Tropical Storm Tracking
New forecast layout! Learn more

10-Day Weather Forecast

Advertisements
Track Severe Weather on mobile